createdAt,value
2019-04-16T00:00:00.979Z,14
2019-04-16T00:01:00.984Z,13
2019-04-16T00:02:00.984Z,14
2019-04-16T00:04:01.010Z,15
2019-04-16T00:05:00.977Z,16
2019-04-16T00:06:00.979Z,15
2019-04-16T00:09:01.014Z,14
2019-04-16T00:10:00.978Z,15
2019-04-16T00:14:03.380Z,16
2019-04-16T00:15:00.980Z,18
2019-04-16T00:17:00.979Z,19
2019-04-16T00:20:05.623Z,17
2019-04-16T00:21:00.978Z,18
2019-04-16T00:22:00.986Z,16
2019-04-16T00:23:00.979Z,15
2019-04-16T00:25:01.020Z,16
2019-04-16T00:26:00.978Z,15
2019-04-16T00:29:02.014Z,16
2019-04-16T00:30:03.824Z,16
2019-04-16T00:31:01.039Z,15
2019-04-16T00:32:00.980Z,17
2019-04-16T00:34:00.983Z,18
2019-04-16T00:35:01.095Z,19
2019-04-16T00:37:00.982Z,17
2019-04-16T00:39:00.990Z,15
2019-04-16T00:40:01.020Z,14
2019-04-16T00:41:02.003Z,16
2019-04-16T00:44:00.983Z,17
2019-04-16T00:45:01.016Z,17
2019-04-16T00:48:00.988Z,18
2019-04-16T00:50:01.020Z,17
2019-04-16T00:51:00.989Z,16
2019-04-16T00:52:05.343Z,18
2019-04-16T00:53:00.985Z,17
2019-04-16T00:54:00.989Z,15
2019-04-16T00:58:00.987Z,14
2019-04-16T00:59:00.988Z,17
2019-04-16T01:00:00.993Z,17
2019-04-16T01:01:00.995Z,18
2019-04-16T01:02:00.987Z,17
2019-04-16T01:04:00.991Z,16
2019-04-16T01:05:00.989Z,18
2019-04-16T01:06:00.997Z,17
2019-04-16T01:10:00.987Z,16
2019-04-16T01:11:01.012Z,17
2019-04-16T01:12:00.989Z,16
2019-04-16T01:13:00.987Z,17
2019-04-16T01:15:01.305Z,17
2019-04-16T01:17:03.804Z,19
2019-04-16T01:19:01.097Z,20
2019-04-16T01:21:00.988Z,19
2019-04-16T01:22:01.013Z,18
2019-04-16T01:24:00.985Z,19
2019-04-16T01:26:00.986Z,18
2019-04-16T01:27:01.027Z,19
2019-04-16T01:28:01.217Z,17
2019-04-16T01:29:03.660Z,15
2019-04-16T01:30:04.842Z,14
2019-04-16T01:31:00.988Z,16
2019-04-16T01:34:01.027Z,17
2019-04-16T01:35:00.990Z,18
2019-04-16T01:36:00.995Z,16
2019-04-16T01:37:00.986Z,14
2019-04-16T01:38:00.986Z,17
2019-04-16T01:40:01.011Z,16
2019-04-16T01:41:00.985Z,17
2019-04-16T01:44:01.026Z,15
2019-04-16T01:45:00.989Z,15
2019-04-16T01:46:02.264Z,17
2019-04-16T01:48:00.984Z,18
2019-04-16T01:49:01.019Z,20
2019-04-16T01:50:01.350Z,22
2019-04-16T01:51:01.033Z,20
2019-04-16T01:52:00.989Z,17
2019-04-16T01:53:00.983Z,16
2019-04-16T01:54:01.015Z,15
2019-04-16T01:56:00.983Z,14
2019-04-16T01:57:01.169Z,16
2019-04-16T01:58:02.670Z,17
2019-04-16T02:00:01.019Z,15
2019-04-16T02:01:00.989Z,17
2019-04-16T02:03:00.983Z,16
2019-04-16T02:06:01.219Z,15
2019-04-16T02:07:01.187Z,16
2019-04-16T02:08:01.016Z,17
2019-04-16T02:09:02.731Z,20
2019-04-16T02:10:05.888Z,22
2019-04-16T02:11:00.987Z,23
2019-04-16T02:12:00.988Z,22
2019-04-16T02:13:01.011Z,21
2019-04-16T02:14:00.989Z,20
2019-04-16T02:15:00.991Z,19
2019-04-16T02:17:00.984Z,20
2019-04-16T02:19:02.279Z,19
2019-04-16T02:20:01.597Z,18
2019-04-16T02:21:00.989Z,17
2019-04-16T02:22:00.987Z,16
2019-04-16T02:23:01.146Z,18
2019-04-16T02:25:00.955Z,20
2019-04-16T02:27:00.957Z,19
2019-04-16T02:28:01.017Z,17
2019-04-16T02:29:01.014Z,16
2019-04-16T02:30:02.291Z,13
2019-04-16T02:32:01.783Z,12
2019-04-16T02:33:01.012Z,13
2019-04-16T02:34:01.019Z,14
2019-04-16T02:36:00.988Z,15
2019-04-16T02:37:03.123Z,18
2019-04-16T02:41:00.962Z,17
2019-04-16T02:44:01.014Z,16
2019-04-16T02:45:00.980Z,17
2019-04-16T02:46:00.997Z,19
2019-04-16T02:47:04.516Z,18
2019-04-16T02:48:01.055Z,17
2019-04-16T02:49:00.960Z,18
2019-04-16T02:50:01.294Z,19
2019-04-16T02:51:05.042Z,18
2019-04-16T02:53:00.990Z,20
2019-04-16T02:54:01.026Z,19
2019-04-16T02:55:06.914Z,18
2019-04-16T02:56:01.129Z,16
2019-04-16T02:57:00.991Z,15
2019-04-16T02:59:09.120Z,14
2019-04-16T03:00:01.155Z,14
2019-04-16T03:01:00.994Z,15
2019-04-16T03:03:00.990Z,13
2019-04-16T03:04:00.956Z,14
2019-04-16T03:05:00.989Z,17
2019-04-16T03:06:01.707Z,15
2019-04-16T03:07:03.044Z,14
2019-04-16T03:08:01.367Z,15
2019-04-16T03:09:00.990Z,16
2019-04-16T03:11:01.015Z,18
2019-04-16T03:12:00.997Z,19
2019-04-16T03:13:00.991Z,17
2019-04-16T03:14:00.992Z,16
2019-04-16T03:15:01.968Z,15
2019-04-16T03:16:02.548Z,14
2019-04-16T03:17:00.989Z,16
2019-04-16T03:20:00.993Z,17
2019-04-16T03:21:00.994Z,19
2019-04-16T03:22:01.965Z,18
2019-04-16T03:23:04.659Z,19
2019-04-16T03:26:01.025Z,17
2019-04-16T03:27:04.237Z,18
2019-04-16T03:28:00.959Z,16
2019-04-16T03:30:03.308Z,16
2019-04-16T03:31:01.024Z,17
2019-04-16T03:33:09.457Z,19
2019-04-16T03:35:00.963Z,18
2019-04-16T03:38:01.555Z,16
2019-04-16T03:39:00.963Z,15
2019-04-16T03:40:14.413Z,16
2019-04-16T03:41:00.992Z,15
2019-04-16T03:42:01.014Z,14
2019-04-16T03:43:03.933Z,15
2019-04-16T03:45:00.990Z,16
2019-04-16T03:46:00.961Z,17
2019-04-16T03:47:01.017Z,16
2019-04-16T03:52:01.017Z,19
2019-04-16T03:53:00.961Z,20
2019-04-16T03:55:00.995Z,19
2019-04-16T03:56:01.931Z,18
2019-04-16T03:57:02.043Z,17
2019-04-16T03:58:05.044Z,15
2019-04-16T04:00:01.066Z,15
2019-04-16T04:02:01.016Z,16
2019-04-16T04:03:00.992Z,17
2019-04-16T04:06:03.462Z,19
2019-04-16T04:07:00.984Z,16
2019-04-16T04:09:01.018Z,15
2019-04-16T04:11:00.993Z,14
2019-04-16T04:12:01.016Z,16
2019-04-16T04:14:00.994Z,17
2019-04-16T04:15:00.993Z,17
2019-04-16T04:19:00.995Z,18
2019-04-16T04:21:00.961Z,16
2019-04-16T04:22:00.961Z,17
2019-04-16T04:23:00.997Z,18
2019-04-16T04:24:01.045Z,17
2019-04-16T04:25:04.254Z,19
2019-04-16T04:26:00.994Z,20
2019-04-16T04:28:01.003Z,19
2019-04-16T04:30:00.995Z,18
2019-04-16T04:32:03.337Z,19
2019-04-16T04:33:01.036Z,18
2019-04-16T04:34:00.993Z,17
2019-04-16T04:35:01.056Z,16
2019-04-16T04:36:01.024Z,17
2019-04-16T04:37:00.994Z,16
2019-04-16T04:38:03.942Z,18
2019-04-16T04:39:00.961Z,17
2019-04-16T04:40:01.024Z,18
2019-04-16T04:41:00.993Z,16
2019-04-16T04:42:00.962Z,17
2019-04-16T04:43:01.719Z,16
2019-04-16T04:45:01.024Z,17
2019-04-16T04:50:03.288Z,15
2019-04-16T04:51:06.659Z,16
2019-04-16T04:52:00.995Z,15
2019-04-16T04:53:00.994Z,14
2019-04-16T04:54:00.960Z,13
2019-04-16T04:55:00.988Z,15
2019-04-16T04:56:00.999Z,16
2019-04-16T04:58:02.656Z,17
2019-04-16T04:59:02.407Z,20
2019-04-16T05:00:01.027Z,19
2019-04-16T05:01:02.441Z,18
2019-04-16T05:04:02.185Z,16
2019-04-16T05:08:00.963Z,15
2019-04-16T05:10:00.995Z,16
2019-04-16T05:11:02.852Z,14
2019-04-16T05:12:00.997Z,16
2019-04-16T05:13:01.003Z,17
2019-04-16T05:14:01.143Z,16
2019-04-16T05:15:03.716Z,17
2019-04-16T05:18:00.969Z,16
2019-04-16T05:19:01.001Z,17
2019-04-16T05:20:05.966Z,18
2019-04-16T05:23:01.031Z,19
2019-04-16T05:24:00.998Z,18
2019-04-16T05:26:04.436Z,19
2019-04-16T05:27:00.997Z,18
2019-04-16T05:29:01.019Z,19
2019-04-16T05:30:00.968Z,19
2019-04-16T05:31:00.997Z,18
2019-04-16T05:32:00.968Z,19
2019-04-16T05:33:04.844Z,20
2019-04-16T05:34:02.368Z,19
2019-04-16T05:35:00.969Z,20
2019-04-16T05:39:03.547Z,19
2019-04-16T05:41:12.402Z,18
2019-04-16T05:43:00.999Z,16
2019-04-16T05:44:01.714Z,15
2019-04-16T05:45:02.370Z,16
2019-04-16T05:46:01.002Z,17
2019-04-16T05:47:00.966Z,16
2019-04-16T05:48:00.998Z,18
2019-04-16T05:49:01.029Z,20
2019-04-16T05:51:01.615Z,18
2019-04-16T05:52:03.713Z,19
2019-04-16T05:54:01.045Z,18
2019-04-16T05:55:01.446Z,17
2019-04-16T05:56:00.999Z,19
2019-04-16T05:57:00.998Z,17
2019-04-16T05:58:00.967Z,16
2019-04-16T06:00:02.831Z,15
2019-04-16T06:01:00.967Z,14
2019-04-16T06:02:00.965Z,15
2019-04-16T06:03:00.998Z,13
2019-04-16T06:04:00.966Z,14
2019-04-16T06:06:00.998Z,16
2019-04-16T06:07:03.675Z,17
2019-04-16T06:08:01.006Z,19
2019-04-16T06:09:00.999Z,18
2019-04-16T06:10:00.998Z,19
2019-04-16T06:11:00.997Z,17
2019-04-16T06:12:01.001Z,14
2019-04-16T06:13:00.998Z,15
2019-04-16T06:14:00.997Z,17
2019-04-16T06:15:00.997Z,17
2019-04-16T06:16:00.997Z,18
2019-04-16T06:17:00.965Z,20
2019-04-16T06:18:02.404Z,19
2019-04-16T06:19:00.965Z,18
2019-04-16T06:20:01.003Z,17
2019-04-16T06:21:00.999Z,16
2019-04-16T06:22:01.007Z,15
2019-04-16T06:25:08.145Z,14
2019-04-16T06:26:01.010Z,15
2019-04-16T06:27:00.966Z,13
2019-04-16T06:28:00.998Z,14
2019-04-16T06:29:01.004Z,15
2019-04-16T06:30:02.208Z,16
2019-04-16T06:31:04.930Z,17
2019-04-16T06:32:00.969Z,19
2019-04-16T06:33:01.000Z,20
2019-04-16T06:34:01.000Z,19
2019-04-16T06:35:00.968Z,17
2019-04-16T06:36:01.001Z,16
2019-04-16T06:38:01.002Z,14
2019-04-16T06:39:00.981Z,13
2019-04-16T06:40:01.833Z,14
2019-04-16T06:41:03.320Z,15
2019-04-16T06:42:01.002Z,16
2019-04-16T06:43:02.720Z,17
2019-04-16T06:45:01.523Z,18
2019-04-16T06:47:00.969Z,17
2019-04-16T06:48:01.002Z,18
2019-04-16T06:51:01.069Z,17
2019-04-16T06:53:01.909Z,16
2019-04-16T06:54:01.004Z,15
2019-04-16T06:55:03.538Z,17
2019-04-16T06:57:01.010Z,19
2019-04-16T06:58:01.008Z,20
2019-04-16T06:59:00.981Z,22
2019-04-16T07:00:02.302Z,20
2019-04-16T07:01:05.557Z,19
2019-04-16T07:02:01.007Z,18
2019-04-16T07:04:01.007Z,17
2019-04-16T07:05:01.956Z,16
2019-04-16T07:06:03.605Z,18
2019-04-16T07:07:00.978Z,19
2019-04-16T07:08:01.012Z,18
2019-04-16T07:09:01.365Z,17
2019-04-16T07:11:01.043Z,15
2019-04-16T07:12:00.979Z,13
2019-04-16T07:13:01.010Z,14
2019-04-16T07:15:00.979Z,16
2019-04-16T07:16:01.042Z,15
2019-04-16T07:17:01.009Z,16
2019-04-16T07:18:02.405Z,18
2019-04-16T07:20:04.260Z,17
2019-04-16T07:21:01.040Z,19
2019-04-16T07:22:00.977Z,21
2019-04-16T07:23:00.978Z,19
2019-04-16T07:25:04.231Z,20
2019-04-16T07:26:03.369Z,19
2019-04-16T07:27:01.020Z,17
2019-04-16T07:28:01.014Z,16
2019-04-16T07:29:01.010Z,17
2019-04-16T07:30:06.505Z,16
2019-04-16T07:31:01.059Z,15
2019-04-16T07:33:01.251Z,13
2019-04-16T07:34:00.975Z,14
2019-04-16T07:36:01.031Z,15
2019-04-16T07:37:01.837Z,16
2019-04-16T07:38:04.879Z,15
2019-04-16T07:39:00.978Z,13
2019-04-16T07:40:01.012Z,12
2019-04-16T07:41:01.030Z,11
2019-04-16T07:42:08.961Z,10
2019-04-16T07:43:00.976Z,12
2019-04-16T07:44:06.158Z,11
2019-04-16T07:45:01.061Z,14
2019-04-16T07:46:01.014Z,15
2019-04-16T07:47:01.031Z,16
2019-04-16T07:49:01.120Z,17
2019-04-16T07:50:01.463Z,16
2019-04-16T07:51:01.509Z,14
2019-04-16T07:52:01.009Z,15
2019-04-16T07:53:01.009Z,14
2019-04-16T07:54:02.614Z,15
2019-04-16T07:55:01.011Z,18
2019-04-16T07:56:01.228Z,19
2019-04-16T07:57:00.977Z,18
2019-04-16T07:59:01.714Z,17
2019-04-16T08:00:00.992Z,16
2019-04-16T08:02:01.042Z,18
2019-04-16T08:03:00.983Z,17
2019-04-16T08:04:02.599Z,18
2019-04-16T08:05:01.011Z,19
2019-04-16T08:06:00.980Z,18
2019-04-16T08:09:01.773Z,19
2019-04-16T08:10:02.742Z,18
2019-04-16T08:11:01.013Z,19
2019-04-16T08:15:12.319Z,19
2019-04-16T08:16:01.012Z,18
2019-04-16T08:20:00.981Z,19
2019-04-16T08:21:06.226Z,20
2019-04-16T08:25:03.171Z,19
2019-04-16T08:26:03.921Z,18
2019-04-16T08:27:00.980Z,16
2019-04-16T08:28:01.041Z,17
2019-04-16T08:29:01.016Z,16
2019-04-16T08:30:03.317Z,16
2019-04-16T08:32:01.014Z,15
2019-04-16T08:33:01.895Z,14
2019-04-16T08:36:01.017Z,16
2019-04-16T08:37:01.015Z,17
2019-04-16T08:38:01.161Z,18
2019-04-16T08:39:05.793Z,19
2019-04-16T08:41:01.013Z,18
2019-04-16T08:43:01.014Z,16
2019-04-16T08:45:01.013Z,17
2019-04-16T08:46:01.015Z,16
2019-04-16T08:50:01.013Z,15
2019-04-16T08:51:04.244Z,16
2019-04-16T08:54:01.061Z,15
2019-04-16T08:55:02.256Z,16
2019-04-16T08:56:00.983Z,15
2019-04-16T08:58:05.723Z,16
2019-04-16T08:59:01.523Z,17
2019-04-16T09:00:01.024Z,16
2019-04-16T09:06:03.653Z,15
2019-04-16T09:07:11.037Z,17
2019-04-16T09:08:12.113Z,18
2019-04-16T09:09:12.201Z,17
2019-04-16T09:12:01.015Z,16
2019-04-16T09:15:01.019Z,18
2019-04-16T09:19:01.016Z,19
2019-04-16T09:22:00.983Z,18
2019-04-16T09:24:06.640Z,16
2019-04-16T09:26:12.845Z,15
2019-04-16T09:27:01.014Z,17
2019-04-16T09:28:01.864Z,16
2019-04-16T09:29:06.561Z,18
2019-04-16T09:30:00.982Z,15
2019-04-16T09:31:01.015Z,16
2019-04-16T09:32:01.015Z,15
2019-04-16T09:33:02.230Z,16
2019-04-16T09:35:08.441Z,17
2019-04-16T09:38:00.984Z,18
2019-04-16T09:39:00.987Z,17
2019-04-16T09:40:00.983Z,18
2019-04-16T09:41:01.005Z,17
2019-04-16T09:42:00.985Z,16
2019-04-16T09:43:01.021Z,14
2019-04-16T09:44:01.014Z,15
2019-04-16T09:45:01.667Z,13
2019-04-16T09:46:09.950Z,14
2019-04-16T09:47:01.020Z,13
2019-04-16T09:50:01.017Z,15
2019-04-16T09:51:01.088Z,17
2019-04-16T09:52:03.767Z,18
2019-04-16T09:54:01.042Z,17
2019-04-16T09:56:01.018Z,14
2019-04-16T09:57:00.985Z,15
2019-04-16T09:58:05.820Z,16
2019-04-16T10:00:08.296Z,18
2019-04-16T10:02:00.991Z,16
2019-04-16T10:03:01.017Z,14
2019-04-16T10:04:01.019Z,15
2019-04-16T10:08:01.049Z,17
2019-04-16T10:11:04.202Z,16
2019-04-16T10:12:01.017Z,17
2019-04-16T10:13:01.061Z,18
2019-04-16T10:14:01.020Z,17
2019-04-16T10:15:01.034Z,17
2019-04-16T10:16:01.033Z,18
2019-04-16T10:19:01.049Z,17
2019-04-16T10:20:01.024Z,18
2019-04-16T10:22:01.040Z,16
2019-04-16T10:23:00.997Z,15
2019-04-16T10:24:01.055Z,18
2019-04-16T10:25:00.990Z,14
2019-04-16T10:27:04.055Z,15
2019-04-16T10:28:01.837Z,16
2019-04-16T10:30:01.022Z,18
2019-04-16T10:31:01.023Z,20
2019-04-16T10:34:01.018Z,19
2019-04-16T10:35:01.042Z,20
2019-04-16T10:36:04.399Z,18
2019-04-16T10:37:01.019Z,16
2019-04-16T10:39:01.020Z,17
2019-04-16T10:40:06.026Z,15
2019-04-16T10:41:00.994Z,16
2019-04-16T10:42:01.013Z,18
2019-04-16T10:44:01.035Z,17
2019-04-16T10:45:01.013Z,17
2019-04-16T10:47:01.070Z,16
2019-04-16T10:49:00.997Z,15
2019-04-16T10:50:01.031Z,16
2019-04-16T10:51:01.043Z,15
2019-04-16T10:54:01.035Z,17
2019-04-16T10:55:01.021Z,15
2019-04-16T10:56:01.105Z,16
2019-04-16T10:57:01.023Z,15
2019-04-16T10:59:01.041Z,14
2019-04-16T11:00:01.045Z,15
2019-04-16T11:01:01.166Z,14
2019-04-16T11:04:01.023Z,15
2019-04-16T11:05:02.826Z,16
2019-04-16T11:07:01.072Z,17
2019-04-16T11:08:01.063Z,18
2019-04-16T11:10:01.024Z,17
2019-04-16T11:11:01.036Z,16
2019-04-16T11:12:04.728Z,15
2019-04-16T11:13:01.011Z,14
2019-04-16T11:14:00.995Z,13
2019-04-16T11:15:01.049Z,14
2019-04-16T11:16:01.013Z,15
2019-04-16T11:17:01.041Z,16
2019-04-16T11:21:01.054Z,17
2019-04-16T11:22:03.629Z,18
2019-04-16T11:23:01.147Z,15
2019-04-16T11:24:00.996Z,16
2019-04-16T11:25:01.050Z,17
2019-04-16T11:26:01.046Z,18
2019-04-16T11:27:01.025Z,17
2019-04-16T11:28:01.050Z,18
2019-04-16T11:30:01.051Z,18
2019-04-16T11:32:01.052Z,17
2019-04-16T11:35:01.022Z,16
2019-04-16T11:36:01.068Z,15
2019-04-16T11:37:06.993Z,16
2019-04-16T11:39:00.990Z,17
2019-04-16T11:40:01.024Z,16
2019-04-16T11:41:01.002Z,17
2019-04-16T11:42:01.045Z,20
2019-04-16T11:43:01.008Z,21
2019-04-16T11:44:13.754Z,20
2019-04-16T11:45:01.028Z,20
2019-04-16T11:46:01.063Z,18
2019-04-16T11:47:01.052Z,15
2019-04-16T11:49:01.028Z,16
2019-04-16T11:51:01.090Z,17
2019-04-16T11:53:01.034Z,16
2019-04-16T11:56:01.090Z,18
2019-04-16T11:58:01.060Z,20
2019-04-16T11:59:01.998Z,22
2019-04-16T12:00:06.919Z,22
2019-04-16T12:01:01.039Z,21
2019-04-16T12:02:01.070Z,22
2019-04-16T12:03:01.076Z,20
2019-04-16T12:04:01.050Z,18
2019-04-16T12:06:01.095Z,17
2019-04-16T12:10:01.064Z,18
2019-04-16T12:11:00.995Z,20
2019-04-16T12:13:03.409Z,19
2019-04-16T12:14:03.731Z,18
2019-04-16T12:15:01.030Z,16
2019-04-16T12:17:01.026Z,15
2019-04-16T12:18:01.035Z,16
2019-04-16T12:19:00.996Z,19
2019-04-16T12:20:01.166Z,21
2019-04-16T12:21:01.065Z,19
2019-04-16T12:22:01.051Z,20
2019-04-16T12:23:01.033Z,19
2019-04-16T12:24:02.249Z,16
2019-04-16T12:25:01.080Z,14
2019-04-16T12:27:01.075Z,13
2019-04-16T12:28:01.529Z,14
2019-04-16T12:29:01.037Z,15
2019-04-16T12:30:01.026Z,15
2019-04-16T12:33:01.037Z,14
2019-04-16T12:34:01.022Z,16
2019-04-16T12:35:01.047Z,18
2019-04-16T12:36:01.027Z,17
2019-04-16T12:37:01.047Z,20
2019-04-16T12:39:01.036Z,17
2019-04-16T12:41:01.056Z,16
2019-04-16T12:43:01.528Z,17
2019-04-16T12:44:01.103Z,19
2019-04-16T12:45:01.056Z,18
2019-04-16T12:46:01.063Z,19
2019-04-16T12:49:01.592Z,18
2019-04-16T12:50:01.277Z,19
2019-04-16T12:51:01.022Z,20
2019-04-16T12:52:01.238Z,19
2019-04-16T12:54:01.275Z,20
2019-04-16T12:55:01.209Z,19
2019-04-16T12:56:05.509Z,18
2019-04-16T12:57:01.262Z,16
2019-04-16T12:58:01.001Z,15
2019-04-16T13:00:01.040Z,15
2019-04-16T13:01:02.758Z,14
2019-04-16T13:02:01.047Z,15
2019-04-16T13:03:01.024Z,17
2019-04-16T13:04:01.185Z,15
2019-04-16T13:05:00.996Z,14
2019-04-16T13:06:01.663Z,15
2019-04-16T13:07:01.050Z,16
2019-04-16T13:10:01.027Z,17
2019-04-16T13:11:01.025Z,18
2019-04-16T13:12:01.050Z,16
2019-04-16T13:15:01.611Z,16
2019-04-16T13:17:01.595Z,18
2019-04-16T13:18:01.103Z,19
2019-04-16T13:20:01.033Z,20
2019-04-16T13:22:01.057Z,19
2019-04-16T13:24:01.026Z,18
2019-04-16T13:25:01.205Z,19
2019-04-16T13:27:01.060Z,17
2019-04-16T13:29:01.028Z,18
2019-04-16T13:30:02.042Z,17
2019-04-16T13:31:01.001Z,16
2019-04-16T13:32:01.008Z,18
2019-04-16T13:33:01.058Z,20
2019-04-16T13:34:01.034Z,19
2019-04-16T13:35:01.011Z,18
2019-04-16T13:36:01.030Z,19
2019-04-16T13:37:01.098Z,17
2019-04-16T13:38:01.059Z,15
2019-04-16T13:39:01.267Z,16
2019-04-16T13:42:01.040Z,17
2019-04-16T13:43:04.747Z,18
2019-04-16T13:44:01.040Z,16
2019-04-16T13:45:15.099Z,17
2019-04-16T13:46:01.006Z,16
2019-04-16T13:49:01.131Z,19
2019-04-16T13:50:03.269Z,18
2019-04-16T13:52:01.036Z,17
2019-04-16T13:54:01.892Z,16
2019-04-16T13:55:01.007Z,15
2019-04-16T13:56:01.034Z,16
2019-04-16T13:57:01.060Z,17
2019-04-16T13:59:01.260Z,16
2019-04-16T14:00:04.291Z,17
2019-04-16T14:01:01.036Z,18
2019-04-16T14:02:01.031Z,19
2019-04-16T14:04:01.035Z,20
2019-04-16T14:06:01.167Z,18
2019-04-16T14:07:01.004Z,17
2019-04-16T14:09:01.041Z,15
2019-04-16T14:10:01.052Z,16
2019-04-16T14:11:01.108Z,18
2019-04-16T14:14:01.164Z,19
2019-04-16T14:15:01.003Z,19
2019-04-16T14:16:01.037Z,16
2019-04-16T14:17:08.684Z,19
2019-04-16T14:18:01.369Z,20
2019-04-16T14:19:02.172Z,21
2019-04-16T14:21:01.036Z,23
2019-04-16T14:22:01.067Z,20
2019-04-16T14:23:01.006Z,21
2019-04-16T14:24:01.036Z,19
2019-04-16T14:25:01.007Z,17
2019-04-16T14:27:01.004Z,18
2019-04-16T14:28:03.047Z,17
2019-04-16T14:29:05.509Z,19
2019-04-16T14:30:01.052Z,22
2019-04-16T14:31:01.065Z,21
2019-04-16T14:33:01.042Z,20
2019-04-16T14:34:01.096Z,19
2019-04-16T14:35:01.010Z,18
2019-04-16T14:36:01.064Z,17
2019-04-16T14:37:01.315Z,18
2019-04-16T14:38:01.042Z,17
2019-04-16T14:39:01.012Z,15
2019-04-16T14:40:01.011Z,17
2019-04-16T14:41:01.065Z,18
2019-04-16T14:42:01.042Z,20
2019-04-16T14:43:01.041Z,19
2019-04-16T14:44:02.078Z,21
2019-04-16T14:45:06.019Z,19
2019-04-16T14:46:01.047Z,20
2019-04-16T14:47:01.919Z,19
2019-04-16T14:48:01.042Z,22
2019-04-16T14:51:01.044Z,20
2019-04-16T14:52:01.930Z,18
2019-04-16T14:53:01.042Z,17
2019-04-16T14:54:01.041Z,16
2019-04-16T14:55:01.044Z,17
2019-04-16T14:59:01.052Z,18
2019-04-16T15:00:01.013Z,17
2019-04-16T15:01:01.024Z,21
2019-04-16T15:02:01.012Z,22
2019-04-16T15:04:01.042Z,21
2019-04-16T15:05:01.043Z,22
2019-04-16T15:06:01.150Z,19
2019-04-16T15:07:01.162Z,20
2019-04-16T15:08:01.042Z,19
2019-04-16T15:09:01.050Z,20
2019-04-16T15:10:02.717Z,19
2019-04-16T15:12:01.792Z,20
2019-04-16T15:13:01.045Z,22
2019-04-16T15:15:01.042Z,22
2019-04-16T15:17:01.041Z,20
2019-04-16T15:19:01.010Z,19
2019-04-16T15:20:01.042Z,18
2019-04-16T15:21:03.059Z,17
2019-04-16T15:23:01.011Z,15
2019-04-16T15:26:01.042Z,14
2019-04-16T15:27:01.044Z,16
2019-04-16T15:28:01.056Z,15
2019-04-16T15:29:01.042Z,16
2019-04-16T15:30:01.010Z,18
2019-04-16T15:33:04.903Z,17
2019-04-16T15:34:01.042Z,16
2019-04-16T15:35:01.047Z,15
2019-04-16T15:36:01.046Z,14
2019-04-16T15:38:01.051Z,15
2019-04-16T15:39:02.613Z,16
2019-04-16T15:40:01.100Z,15
2019-04-16T15:45:01.047Z,16
2019-04-16T15:46:06.643Z,17
2019-04-16T15:47:01.046Z,18
2019-04-16T15:49:01.047Z,16
2019-04-16T15:51:01.756Z,17
2019-04-16T15:53:01.044Z,16
2019-04-16T15:55:01.045Z,17
2019-04-16T15:56:01.369Z,16
2019-04-16T15:58:01.199Z,17
2019-04-16T15:59:01.045Z,18
2019-04-16T16:00:01.057Z,17
2019-04-16T16:03:01.049Z,16
2019-04-16T16:05:01.236Z,17
2019-04-16T16:06:01.347Z,16
2019-04-16T16:09:03.697Z,17
2019-04-16T16:10:01.055Z,16
2019-04-16T16:11:01.132Z,15
2019-04-16T16:12:01.048Z,16
2019-04-16T16:13:01.048Z,14
2019-04-16T16:14:01.587Z,15
2019-04-16T16:15:01.050Z,15
2019-04-16T16:18:01.048Z,16
2019-04-16T16:21:01.356Z,17
2019-04-16T16:23:01.050Z,16
2019-04-16T16:24:06.030Z,15
2019-04-16T16:26:01.016Z,17
2019-04-16T16:27:01.018Z,16
2019-04-16T16:28:01.051Z,17
2019-04-16T16:29:01.048Z,19
2019-04-16T16:30:01.048Z,19
2019-04-16T16:31:01.017Z,18
2019-04-16T16:33:01.049Z,19
2019-04-16T16:34:01.018Z,18
2019-04-16T16:35:01.050Z,19
2019-04-16T16:36:01.017Z,18
2019-04-16T16:37:01.016Z,19
2019-04-16T16:38:01.020Z,17
2019-04-16T16:39:01.051Z,18
2019-04-16T16:40:01.052Z,19
2019-04-16T16:43:01.052Z,21
2019-04-16T16:45:01.565Z,19
2019-04-16T16:46:01.051Z,18
2019-04-16T16:47:01.050Z,17
2019-04-16T16:49:01.021Z,18
2019-04-16T16:53:02.202Z,16
2019-04-16T16:54:01.051Z,14
2019-04-16T16:55:01.020Z,16
2019-04-16T16:56:01.055Z,14
2019-04-16T16:58:01.049Z,15
2019-04-16T17:00:01.021Z,14
2019-04-16T17:01:01.749Z,16
2019-04-16T17:03:01.396Z,15
2019-04-16T17:06:01.052Z,14
2019-04-16T17:08:01.051Z,15
2019-04-16T17:12:01.217Z,14
2019-04-16T17:13:01.056Z,16
2019-04-16T17:14:02.758Z,17
2019-04-16T17:15:01.019Z,16
2019-04-16T17:17:12.746Z,17
2019-04-16T17:18:01.137Z,14
2019-04-16T17:19:01.051Z,15
2019-04-16T17:21:01.051Z,16
2019-04-16T17:22:01.050Z,17
2019-04-16T17:23:01.052Z,19
2019-04-16T17:25:01.023Z,18
2019-04-16T17:26:01.123Z,17
2019-04-16T17:27:01.054Z,16
2019-04-16T17:28:01.052Z,15
2019-04-16T17:29:01.021Z,14
2019-04-16T17:30:01.050Z,14
2019-04-16T17:31:01.050Z,15
2019-04-16T17:32:01.051Z,14
2019-04-16T17:33:01.054Z,13
2019-04-16T17:34:01.050Z,15
2019-04-16T17:35:01.019Z,16
2019-04-16T17:36:01.052Z,15
2019-04-16T17:37:01.064Z,16
2019-04-16T17:38:02.688Z,18
2019-04-16T17:40:01.123Z,21
2019-04-16T17:41:01.292Z,20
2019-04-16T17:43:01.057Z,18
2019-04-16T17:44:03.022Z,17
2019-04-16T17:45:01.302Z,14
2019-04-16T17:46:01.056Z,15
2019-04-16T17:48:01.059Z,16
2019-04-16T17:51:01.199Z,15
2019-04-16T17:52:01.056Z,16
2019-04-16T17:53:01.053Z,14
2019-04-16T17:55:01.065Z,12
2019-04-16T17:56:01.327Z,13
2019-04-16T17:58:01.054Z,14
2019-04-16T17:59:01.256Z,15
2019-04-16T18:00:04.482Z,16
2019-04-16T18:02:01.054Z,15
2019-04-16T18:03:04.029Z,16
2019-04-16T18:04:01.026Z,15
2019-04-16T18:05:01.054Z,17
2019-04-16T18:06:01.200Z,18
2019-04-16T18:07:01.105Z,19
2019-04-16T18:10:02.059Z,18
2019-04-16T18:11:01.054Z,17
2019-04-16T18:12:02.050Z,18
2019-04-16T18:13:01.213Z,17
2019-04-16T18:15:01.074Z,16
2019-04-16T18:16:01.096Z,15
2019-04-16T18:17:01.383Z,12
2019-04-16T18:18:02.044Z,13
2019-04-16T18:21:01.053Z,14
2019-04-16T18:22:03.738Z,15
2019-04-16T18:23:01.054Z,14
2019-04-16T18:24:01.054Z,15
2019-04-16T18:26:01.031Z,14
2019-04-16T18:27:01.022Z,15
2019-04-16T18:29:02.039Z,14
2019-04-16T18:30:04.848Z,12
2019-04-16T18:31:01.024Z,14
2019-04-16T18:34:01.054Z,16
2019-04-16T18:37:01.056Z,15
2019-04-16T18:38:01.022Z,16
2019-04-16T18:39:03.888Z,15
2019-04-16T18:40:04.861Z,18
2019-04-16T18:41:03.535Z,17
2019-04-16T18:43:01.095Z,18
2019-04-16T18:45:01.025Z,16
2019-04-16T18:47:04.923Z,17
2019-04-16T18:48:05.331Z,16
2019-04-16T18:49:01.053Z,18
2019-04-16T18:51:01.949Z,19
2019-04-16T18:52:01.051Z,20
2019-04-16T18:53:01.055Z,19
2019-04-16T18:54:01.052Z,18
2019-04-16T18:56:01.020Z,19
2019-04-16T18:58:01.022Z,18
2019-04-16T19:00:01.057Z,21
2019-04-16T19:01:01.053Z,20
2019-04-16T19:02:01.054Z,18
2019-04-16T19:05:01.056Z,15
2019-04-16T19:07:06.059Z,16
2019-04-16T19:08:01.516Z,17
2019-04-16T19:10:01.055Z,18
2019-04-16T19:11:01.056Z,19
2019-04-16T19:12:01.057Z,17
2019-04-16T19:15:01.072Z,17
2019-04-16T19:17:01.023Z,16
2019-04-16T19:20:03.548Z,14
2019-04-16T19:22:01.054Z,15
2019-04-16T19:23:01.120Z,17
2019-04-16T19:24:01.054Z,18
2019-04-16T19:26:01.057Z,17
2019-04-16T19:27:01.025Z,18
2019-04-16T19:28:04.424Z,16
2019-04-16T19:29:01.067Z,15
2019-04-16T19:30:01.055Z,14
2019-04-16T19:31:01.055Z,13
2019-04-16T19:32:01.056Z,12
2019-04-16T19:33:02.188Z,11
2019-04-16T19:34:01.177Z,10
2019-04-16T19:35:08.559Z,12
2019-04-16T19:37:01.373Z,15
2019-04-16T19:38:02.237Z,17
2019-04-16T19:39:01.059Z,18
2019-04-16T19:40:01.064Z,19
2019-04-16T19:41:01.307Z,20
2019-04-16T19:42:01.229Z,19
2019-04-16T19:43:02.990Z,18
2019-04-16T19:44:06.025Z,16
2019-04-16T19:45:01.025Z,16
2019-04-16T19:46:01.087Z,15
2019-04-16T19:47:01.241Z,14
2019-04-16T19:48:02.110Z,15
2019-04-16T19:49:01.418Z,16
2019-04-16T19:50:01.391Z,15
2019-04-16T19:51:01.057Z,17
2019-04-16T19:53:01.265Z,19
2019-04-16T19:54:01.373Z,18
2019-04-16T19:55:01.057Z,20
2019-04-16T19:56:02.047Z,19
2019-04-16T19:58:01.050Z,17
2019-04-16T19:59:01.121Z,18
2019-04-16T20:00:01.071Z,16
2019-04-16T20:01:01.062Z,14
2019-04-16T20:02:01.889Z,16
2019-04-16T20:03:01.057Z,17
2019-04-16T20:05:01.060Z,18
2019-04-16T20:06:01.031Z,19
2019-04-16T20:08:01.083Z,17
2019-04-16T20:09:01.060Z,19
2019-04-16T20:10:01.288Z,20
2019-04-16T20:11:01.060Z,19
2019-04-16T20:12:01.059Z,18
2019-04-16T20:14:02.586Z,15